Observation data for Anton on 08/20/2019      Previous  Date  Next       Current Mesonet Observations  Soil Data  Daily Summary Page  Observations in Plain Language
KAOS 200500Z 15010KT 30/14 A3008 RMK A01 T02950136  RH  039%=      5-min Rain = 0
KAOS 200505Z 15010KT 29/14 A3008 RMK A01 T02940136  RH  040%=      5-min Rain = 0
KAOS 200510Z 15009KT 29/14 A3008 RMK A01 T02920136  RH  040%=      5-min Rain = 0
KAOS 200515Z 15009KT 29/14 A3008 RMK A01 T02900137  RH  041%=      5-min Rain = 0
KAOS 200520Z 15010KT 29/14 A3008 RMK A01 T02880137  RH  041%=      5-min Rain = 0
KAOS 200525Z 15010KT 29/14 A3008 RMK A01 T02870137  RH  042%=      5-min Rain = 0
KAOS 200530Z 15010KT 29/14 A3008 RMK A01 T02850137  RH  042%=      5-min Rain = 0
KAOS 200535Z 15010KT 28/14 A3008 RMK A01 T02840137  RH  042%=      5-min Rain = 0
KAOS 200540Z 15009KT 28/14 A3008 RMK A01 T02830138  RH  043%=      5-min Rain = 0
KAOS 200545Z 16009KT 28/14 A3008 RMK A01 T02810138  RH  043%=      5-min Rain = 0
KAOS 200550Z 16008KT 28/14 A3008 RMK A01 T02790138  RH  044%=      5-min Rain = 0
KAOS 200555Z 16008KT 28/14 A3008 RMK A01 T02770138  RH  044%=      5-min Rain = 0
KAOS 200600Z 16008KT 28/14 A3008 RMK A01 T02750138  RH  045%=      5-min Rain = 0
KAOS 200605Z 16008KT 27/14 A3008 RMK A01 T02730138  RH  045%=      5-min Rain = 0
KAOS 200610Z 15009KT 27/14 A3008 RMK A01 T02730139  RH  045%=      5-min Rain = 0
KAOS 200615Z 15010KT 27/14 A3008 RMK A01 T02730139  RH  046%=      5-min Rain = 0
KAOS 200620Z 15010KT 27/14 A3008 RMK A01 T02720140  RH  046%=      5-min Rain = 0
KAOS 200625Z 14011KT 27/14 A3008 RMK A01 T02710141  RH  047%=      5-min Rain = 0
KAOS 200630Z 14011KT 27/14 A3008 RMK A01 T02710141  RH  047%=      5-min Rain = 0
KAOS 200635Z 14011KT 27/14 A3008 RMK A01 T02710142  RH  047%=      5-min Rain = 0
KAOS 200640Z 14011KT 27/14 A3008 RMK A01 T02710142  RH  047%=      5-min Rain = 0
KAOS 200645Z 15010KT 27/14 A3008 RMK A01 T02700142  RH  047%=      5-min Rain = 0
KAOS 200650Z 15009KT 27/14 A3008 RMK A01 T02690142  RH  048%=      5-min Rain = 0
KAOS 200655Z 15008KT 27/14 A3008 RMK A01 T02680143  RH  048%=      5-min Rain = 0
KAOS 200700Z 15008KT 27/14 A3008 RMK A01 T02680142  RH  048%=      5-min Rain = 0
KAOS 200705Z 15008KT 27/14 A3008 RMK A01 T02670143  RH  048%=      5-min Rain = 0
KAOS 200710Z 15008KT 27/14 A3008 RMK A01 T02660143  RH  049%=      5-min Rain = 0
KAOS 200715Z 15008KT 27/14 A3008 RMK A01 T02650144  RH  049%=      5-min Rain = 0
KAOS 200720Z 15008KT 26/14 A3008 RMK A01 T02640144  RH  050%=      5-min Rain = 0
KAOS 200725Z 15007KT 26/14 A3008 RMK A01 T02640144  RH  050%=      5-min Rain = 0
KAOS 200730Z 15008KT 26/14 A3008 RMK A01 T02640144  RH  050%=      5-min Rain = 0
KAOS 200735Z 15008KT 26/14 A3008 RMK A01 T02640144  RH  050%=      5-min Rain = 0
KAOS 200740Z 15008KT 26/14 A3008 RMK A01 T02630144  RH  050%=      5-min Rain = 0
KAOS 200745Z 15008KT 26/15 A3008 RMK A01 T02630145  RH  050%=      5-min Rain = 0
KAOS 200750Z 16008KT 26/15 A3008 RMK A01 T02620145  RH  051%=      5-min Rain = 0
KAOS 200755Z 16007KT 26/15 A3008 RMK A01 T02600145  RH  051%=      5-min Rain = 0
KAOS 200800Z 16008KT 26/14 A3008 RMK A01 T02590144  RH  051%=      5-min Rain = 0
KAOS 200805Z 16007KT 26/14 A3008 RMK A01 T02590144  RH  051%=      5-min Rain = 0
KAOS 200810Z 16008KT 26/15 A3008 RMK A01 T02580145  RH  052%=      5-min Rain = 0
KAOS 200815Z 15008KT 26/15 A3009 RMK A01 T02570145  RH  052%=      5-min Rain = 0
KAOS 200820Z 15009KT 26/15 A3009 RMK A01 T02560145  RH  052%=      5-min Rain = 0
KAOS 200825Z 15008KT 26/15 A3009 RMK A01 T02550145  RH  053%=      5-min Rain = 0
KAOS 200830Z 15008KT 25/15 A3009 RMK A01 T02530146  RH  054%=      5-min Rain = 0
KAOS 200835Z 16007KT 25/15 A3009 RMK A01 T02520145  RH  054%=      5-min Rain = 0
KAOS 200840Z 17006KT 25/14 A3009 RMK A01 T02500144  RH  054%=      5-min Rain = 0
KAOS 200845Z 17006KT 25/14 A3009 RMK A01 T02470144  RH  055%=      5-min Rain = 0
KAOS 200850Z 17006KT 25/14 A3009 RMK A01 T02450144  RH  056%=      5-min Rain = 0
KAOS 200855Z 16006KT 25/14 A3009 RMK A01 T02450144  RH  056%=      5-min Rain = 0
KAOS 200900Z 17005KT 25/14 A3009 RMK A01 T02450144  RH  056%=      5-min Rain = 0
KAOS 200905Z 17005KT 25/14 A3009 RMK A01 T02450144  RH  056%=      5-min Rain = 0
KAOS 200910Z 17005KT 24/14 A3009 RMK A01 T02440144  RH  056%=      5-min Rain = 0
KAOS 200915Z 18004KT 24/14 A301 RMK A01 T02430144  RH  056%=      5-min Rain = 0
KAOS 200920Z 18004KT 24/15 A301 RMK A01 T02420145  RH  057%=      5-min Rain = 0
KAOS 200925Z 17003KT 24/15 A301 RMK A01 T02420145  RH  057%=      5-min Rain = 0
KAOS 200930Z 18003KT 24/15 A301 RMK A01 T02430145  RH  057%=      5-min Rain = 0
KAOS 200935Z 19004KT 24/15 A301 RMK A01 T02440145  RH  056%=      5-min Rain = 0
KAOS 200940Z 19005KT 25/15 A301 RMK A01 T02450145  RH  056%=      5-min Rain = 0
KAOS 200945Z 19005KT 24/14 A301 RMK A01 T02430144  RH  056%=      5-min Rain = 0
KAOS 200950Z 18006KT 24/14 A301 RMK A01 T02420143  RH  056%=      5-min Rain = 0
KAOS 200955Z 18006KT 24/14 A301 RMK A01 T02400143  RH  057%=      5-min Rain = 0
KAOS 201000Z 20005KT 24/14 A301 RMK A01 T02370142  RH  058%=      5-min Rain = 0
KAOS 201005Z 21005KT 23/14 A301 RMK A01 T02340142  RH  059%=      5-min Rain = 0
KAOS 201010Z 21005KT 23/14 A301 RMK A01 T02340142  RH  059%=      5-min Rain = 0
KAOS 201015Z 20005KT 23/14 A301 RMK A01 T02340142  RH  059%=      5-min Rain = 0
KAOS 201020Z 21005KT 23/14 A301 RMK A01 T02320142  RH  059%=      5-min Rain = 0
KAOS 201025Z 22006KT 23/14 A301 RMK A01 T02330141  RH  059%=      5-min Rain = 0
KAOS 201030Z 23005KT 23/14 A301 RMK A01 T02340141  RH  058%=      5-min Rain = 0
KAOS 201035Z 24004KT 23/14 A301 RMK A01 T02330141  RH  059%=      5-min Rain = 0
KAOS 201040Z 23004KT 23/14 A301 RMK A01 T02310141  RH  059%=      5-min Rain = 0
KAOS 201045Z 23004KT 23/14 A3011 RMK A01 T02310141  RH  059%=      5-min Rain = 0
KAOS 201050Z 24004KT 23/14 A3011 RMK A01 T02290141  RH  060%=      5-min Rain = 0
KAOS 201055Z 25004KT 22/14 A3011 RMK A01 T02240140  RH  061%=      5-min Rain = 0
KAOS 201100Z 25005KT 22/14 A3011 RMK A01 T02200139  RH  063%=      5-min Rain = 0
KAOS 201105Z 24005KT 22/14 A3011 RMK A01 T02180139  RH  063%=      5-min Rain = 0
KAOS 201110Z 23006KT 22/14 A3011 RMK A01 T02170138  RH  063%=      5-min Rain = 0
KAOS 201115Z 23006KT 22/14 A3011 RMK A01 T02170138  RH  064%=      5-min Rain = 0
KAOS 201120Z 22005KT 21/14 A3011 RMK A01 T02140137  RH  064%=      5-min Rain = 0
KAOS 201125Z 22003KT 21/14 A3011 RMK A01 T02100137  RH  065%=      5-min Rain = 0
KAOS 201130Z 22003KT 21/14 A3011 RMK A01 T02050136  RH  067%=      5-min Rain = 0
KAOS 201135Z 22002KT 20/14 A3011 RMK A01 T02030136  RH  068%=      5-min Rain = 0
KAOS 201140Z 22002KT 20/14 A3011 RMK A01 T02030135  RH  068%=      5-min Rain = 0
KAOS 201145Z 19001KT 20/13 A3011 RMK A01 T02030134  RH  067%=      5-min Rain = 0
KAOS 201150Z 18001KT 20/13 A3011 RMK A01 T02010133  RH  068%=      5-min Rain = 0
KAOS 201155Z 18001KT 20/13 A3011 RMK A01 T02020134  RH  068%=      5-min Rain = 0
KAOS 201200Z 17001KT 20/14 A3011 RMK A01 T02020135  RH  068%=      5-min Rain = 0
KAOS 201205Z 17001KT 20/14 A3012 RMK A01 T02040135  RH  067%=      5-min Rain = 0
KAOS 201210Z 15002KT 21/14 A3012 RMK A01 T02050135  RH  067%=      5-min Rain = 0
KAOS 201215Z 14001KT 21/14 A3012 RMK A01 T02060135  RH  067%=      5-min Rain = 0
KAOS 201220Z 14000KT 21/13 A3012 RMK A01 T02060134  RH  066%=      5-min Rain = 0
KAOS 201225Z 15001KT 21/14 A3013 RMK A01 T02050135  RH  067%=      5-min Rain = 0
KAOS 201230Z 15002KT 21/14 A3013 RMK A01 T02080136  RH  066%=      5-min Rain = 0
KAOS 201235Z 15002KT 21/14 A3013 RMK A01 T02060135  RH  066%=      5-min Rain = 0
KAOS 201240Z 15001KT 21/14 A3013 RMK A01 T02070136  RH  066%=      5-min Rain = 0
KAOS 201245Z 15002KT 21/14 A3013 RMK A01 T02100137  RH  065%=      5-min Rain = 0
KAOS 201250Z 15002KT 21/14 A3013 RMK A01 T02120138  RH  065%=      5-min Rain = 0
KAOS 201255Z 15002KT 21/14 A3013 RMK A01 T02130140  RH  066%=      5-min Rain = 0
KAOS 201300Z 15003KT 21/14 A3013 RMK A01 T02130141  RH  066%=      5-min Rain = 0
KAOS 201305Z 13003KT 22/14 A3013 RMK A01 T02160143  RH  066%=      5-min Rain = 0
KAOS 201310Z 14003KT 22/14 A3014 RMK A01 T02190143  RH  065%=      5-min Rain = 0
KAOS 201315Z 14003KT 22/15 A3014 RMK A01 T02210145  RH  065%=      5-min Rain = 0
KAOS 201320Z 14003KT 22/15 A3014 RMK A01 T02240145  RH  064%=      5-min Rain = 0
KAOS 201325Z 13003KT 23/15 A3014 RMK A01 T02300148  RH  062%=      5-min Rain = 0
KAOS 201330Z 14003KT 24/15 A3014 RMK A01 T02360149  RH  061%=      5-min Rain = 0
KAOS 201335Z 15001KT 24/15 A3014 RMK A01 T02440148  RH  058%=      5-min Rain = 0
KAOS 201340Z 15002KT 25/15 A3014 RMK A01 T02510147  RH  055%=      5-min Rain = 0
KAOS 201345Z 18003KT 26/15 A3014 RMK A01 T02550148  RH  054%=      5-min Rain = 0
KAOS 201350Z 20005KT 25/14 A3014 RMK A01 T02540144  RH  053%=      5-min Rain = 0
KAOS 201355Z 19005KT 26/14 A3014 RMK A01 T02550144  RH  052%=      5-min Rain = 0
KAOS 201400Z 19006KT 26/15 A3014 RMK A01 T02560145  RH  053%=      5-min Rain = 0
KAOS 201405Z 19006KT 26/15 A3014 RMK A01 T02580146  RH  052%=      5-min Rain = 0
KAOS 201410Z 19008G13KT 26/15 A3014 RMK A01 T02600147  RH  052%=      5-min Rain = 0
KAOS 201415Z 20009KT 26/15 A3014 RMK A01 T02630145  RH  050%=      5-min Rain = 0
KAOS 201420Z 20009KT 26/15 A3014 RMK A01 T02630145  RH  050%=      5-min Rain = 0
KAOS 201425Z 20009KT 26/15 A3014 RMK A01 T02640147  RH  051%=      5-min Rain = 0
KAOS 201430Z 21009KT 27/15 A3014 RMK A01 T02650149  RH  051%=      5-min Rain = 0
KAOS 201435Z 21008KT 27/15 A3014 RMK A01 T02680151  RH  051%=      5-min Rain = 0
KAOS 201440Z 21009KT 27/15 A3015 RMK A01 T02690152  RH  051%=      5-min Rain = 0
KAOS 201445Z 21009KT 27/15 A3015 RMK A01 T02700154  RH  051%=      5-min Rain = 0
KAOS 201450Z 21010KT 27/16 A3015 RMK A01 T02710156  RH  052%=      5-min Rain = 0
KAOS 201455Z 21011KT 28/16 A3014 RMK A01 T02750157  RH  051%=      5-min Rain = 0
KAOS 201500Z 20012KT 28/16 A3014 RMK A01 T02760157  RH  051%=      5-min Rain = 0
KAOS 201505Z 19011KT 28/16 A3014 RMK A01 T02770160  RH  051%=      5-min Rain = 0
KAOS 201510Z 19009KT 28/16 A3014 RMK A01 T02790162  RH  051%=      5-min Rain = 0
KAOS 201515Z 20011KT 29/16 A3015 RMK A01 T02850163  RH  050%=      5-min Rain = 0
KAOS 201520Z 20011G16KT 29/16 A3014 RMK A01 T02920164  RH  048%=      5-min Rain = 0
KAOS 201525Z 20012KT 30/16 A3014 RMK A01 T02950164  RH  047%=      5-min Rain = 0
KAOS 201530Z 19012KT 30/16 A3014 RMK A01 T02960164  RH  047%=      5-min Rain = 0
KAOS 201535Z 19011KT 30/16 A3014 RMK A01 T02990164  RH  046%=      5-min Rain = 0
KAOS 201540Z 18010KT 30/17 A3014 RMK A01 T03020166  RH  046%=      5-min Rain = 0
KAOS 201545Z 20011G17KT 31/16 A3014 RMK A01 T03060163  RH  044%=      5-min Rain = 0
KAOS 201550Z 21012KT 31/16 A3014 RMK A01 T03070161  RH  043%=      5-min Rain = 0
KAOS 201555Z 21011KT 31/16 A3014 RMK A01 T03080164  RH  044%=      5-min Rain = 0
KAOS 201600Z 20010G15KT 31/16 A3014 RMK A01 T03110164  RH  043%=      5-min Rain = 0
KAOS 201605Z 21009KT 31/16 A3014 RMK A01 T03130163  RH  043%=      5-min Rain = 0
KAOS 201610Z 20010KT 31/16 A3014 RMK A01 T03130162  RH  042%=      5-min Rain = 0
KAOS 201615Z 20010KT 32/16 A3014 RMK A01 T03150162  RH  042%=      5-min Rain = 0
KAOS 201620Z 19010G15KT 32/16 A3014 RMK A01 T03150159  RH  041%=      5-min Rain = 0
KAOS 201625Z 19010KT 32/16 A3014 RMK A01 T03150159  RH  041%=      5-min Rain = 0
KAOS 201630Z 21011KT 32/16 A3014 RMK A01 T03200160  RH  040%=      5-min Rain = 0
KAOS 201635Z 21009KT 32/16 A3014 RMK A01 T03180157  RH  040%=      5-min Rain = 0
KAOS 201640Z 21009KT 32/16 A3014 RMK A01 T03220157  RH  039%=      5-min Rain = 0
KAOS 201645Z 21008G14KT 32/16 A3014 RMK A01 T03220157  RH  039%=      5-min Rain = 0
KAOS 201650Z 21008G13KT 32/16 A3015 RMK A01 T03240156  RH  038%=      5-min Rain = 0
KAOS 201655Z 21008G13KT 33/16 A3014 RMK A01 T03280156  RH  037%=      5-min Rain = 0
KAOS 201700Z 19007G13KT 33/15 A3014 RMK A01 T03250154  RH  038%=      5-min Rain = 0
KAOS 201705Z 22008G13KT 33/15 A3014 RMK A01 T03280153  RH  036%=      5-min Rain = 0
KAOS 201710Z 21009G17KT 33/15 A3014 RMK A01 T03300150  RH  036%=      5-min Rain = 0
KAOS 201715Z 20009G17KT 33/15 A3014 RMK A01 T03290148  RH  035%=      5-min Rain = 0
KAOS 201720Z 21009G14KT 33/15 A3014 RMK A01 T03310150  RH  035%=      5-min Rain = 0
KAOS 201725Z 21008G13KT 33/15 A3014 RMK A01 T03320150  RH  035%=      5-min Rain = 0
KAOS 201730Z 20007G12KT 34/15 A3014 RMK A01 T03390145  RH  033%=      5-min Rain = 0
KAOS 201735Z 21009G14KT 33/14 A3014 RMK A01 T03340144  RH  033%=      5-min Rain = 0
KAOS 201740Z 18007G13KT 33/14 A3014 RMK A01 T03340143  RH  033%=      5-min Rain = 0
KAOS 201745Z 17009KT 33/14 A3014 RMK A01 T03330138  RH  032%=      5-min Rain = 0
KAOS 201750Z 17007KT 34/14 A3014 RMK A01 T03370143  RH  032%=      5-min Rain = 0
KAOS 201755Z 19006KT 34/14 A3014 RMK A01 T03400139  RH  031%=      5-min Rain = 0
KAOS 201800Z 17007G12KT 34/14 A3014 RMK A01 T03390139  RH  031%=      5-min Rain = 0
KAOS 201805Z 16006G11KT 34/14 A3014 RMK A01 T03390141  RH  032%=      5-min Rain = 0
KAOS 201810Z 18005G11KT 34/14 A3014 RMK A01 T03390138  RH  031%=      5-min Rain = 0
KAOS 201815Z 20007KT 34/13 A3014 RMK A01 T03420132  RH  029%=      5-min Rain = 0
KAOS 201820Z 15007G12KT 34/14 A3013 RMK A01 T03420138  RH  031%=      5-min Rain = 0
KAOS 201825Z 14005G11KT 34/14 A3013 RMK A01 T03440139  RH  031%=      5-min Rain = 0
KAOS 201830Z 14007KT 35/14 A3013 RMK A01 T03470137  RH  029%=      5-min Rain = 0
KAOS 201835Z 17006G11KT 35/14 A3013 RMK A01 T03520135  RH  028%=      5-min Rain = 0
KAOS 201840Z 20007G13KT 35/14 A3012 RMK A01 T03500140  RH  030%=      5-min Rain = 0
KAOS 201845Z 17008G14KT 35/14 A3012 RMK A01 T03520140  RH  029%=      5-min Rain = 0
KAOS 201850Z 14008G14KT 35/15 A3012 RMK A01 T03510145  RH  031%=      5-min Rain = 0
KAOS 201855Z 16010KT 35/14 A3012 RMK A01 T03500144  RH  030%=      5-min Rain = 0
KAOS 201900Z 16006G14KT 35/14 A3012 RMK A01 T03480141  RH  030%=      5-min Rain = 0
KAOS 201905Z 16010KT 36/14 A3012 RMK A01 T03570142  RH  029%=      5-min Rain = 0
KAOS 201910Z 17007G17KT 35/14 A3012 RMK A01 T03510138  RH  029%=      5-min Rain = 0
KAOS 201915Z 14008G14KT 36/14 A3012 RMK A01 T03550142  RH  029%=      5-min Rain = 0
KAOS 201920Z 16008G14KT 35/14 A3012 RMK A01 T03540136  RH  028%=      5-min Rain = 0
KAOS 201925Z 15009KT 36/13 A3012 RMK A01 T03550134  RH  028%=      5-min Rain = 0
KAOS 201930Z 19008G13KT 35/13 A3012 RMK A01 T03520131  RH  028%=      5-min Rain = 0
KAOS 201935Z 15006G12KT 35/14 A3011 RMK A01 T03490136  RH  029%=      5-min Rain = 0
KAOS 201940Z 15010KT 35/14 A3011 RMK A01 T03540142  RH  029%=      5-min Rain = 0
KAOS 201945Z 19006KT 35/13 A3011 RMK A01 T03540126  RH  026%=      5-min Rain = 0
KAOS 201950Z 15004G13KT 35/13 A3011 RMK A01 T03520131  RH  028%=      5-min Rain = 0
KAOS 201955Z 12009G14KT 36/13 A3011 RMK A01 T03550132  RH  027%=      5-min Rain = 0
KAOS 202000Z 15008KT 36/13 A3011 RMK A01 T03580134  RH  027%=      5-min Rain = 0
KAOS 202005Z 13008KT 35/14 A3011 RMK A01 T03540142  RH  029%=      5-min Rain = 0
KAOS 202010Z 12007KT 35/14 A301 RMK A01 T03520140  RH  029%=      5-min Rain = 0
KAOS 202015Z 16010G16KT 36/14 A301 RMK A01 T03580138  RH  028%=      5-min Rain = 0
KAOS 202020Z 17007G13KT 36/13 A301 RMK A01 T03580130  RH  026%=      5-min Rain = 0
KAOS 202025Z 15005G12KT 36/14 A301 RMK A01 T03550136  RH  028%=      5-min Rain = 0
KAOS 202030Z 12009KT 36/14 A301 RMK A01 T03580140  RH  028%=      5-min Rain = 0
KAOS 202035Z 15008KT 36/14 A3009 RMK A01 T03560140  RH  029%=      5-min Rain = 0
KAOS 202040Z 15008G13KT 36/14 A3009 RMK A01 T03580138  RH  028%=      5-min Rain = 0
KAOS 202045Z 16009G14KT 36/14 A3009 RMK A01 T03610137  RH  027%=      5-min Rain = 0
KAOS 202050Z 17008G14KT 36/13 A3009 RMK A01 T03590134  RH  027%=      5-min Rain = 0
KAOS 202055Z 13007G13KT 36/14 A3009 RMK A01 T03590137  RH  028%=      5-min Rain = 0
KAOS 202100Z 15014G19KT 36/14 A3008 RMK A01 T03590136  RH  028%=      5-min Rain = 0
KAOS 202105Z 13009G15KT 36/13 A3008 RMK A01 T03570133  RH  027%=      5-min Rain = 0
KAOS 202110Z 13011KT 36/13 A3008 RMK A01 T03570131  RH  027%=      5-min Rain = 0
KAOS 202115Z 13010G15KT 36/13 A3008 RMK A01 T03580133  RH  027%=      5-min Rain = 0
KAOS 202120Z 15009KT 36/13 A3007 RMK A01 T03570132  RH  027%=      5-min Rain = 0
KAOS 202125Z 14009KT 35/13 A3007 RMK A01 T03500128  RH  027%=      5-min Rain = 0
KAOS 202130Z 16010KT 35/12 A3007 RMK A01 T03480121  RH  026%=      5-min Rain = 0
KAOS 202135Z 17010G15KT 35/12 A3007 RMK A01 T03470117  RH  026%=      5-min Rain = 0
KAOS 202140Z 16007KT 35/12 A3007 RMK A01 T03460121  RH  027%=      5-min Rain = 0
KAOS 202145Z 18007KT 35/12 A3007 RMK A01 T03470124  RH  027%=      5-min Rain = 0
KAOS 202150Z 18010KT 35/12 A3007 RMK A01 T03470124  RH  027%=      5-min Rain = 0
KAOS 202155Z 17009KT 35/12 A3007 RMK A01 T03480123  RH  027%=      5-min Rain = 0
KAOS 202200Z 16008KT 35/12 A3006 RMK A01 T03500124  RH  027%=      5-min Rain = 0
KAOS 202205Z 17009KT 35/13 A3006 RMK A01 T03490125  RH  027%=      5-min Rain = 0
KAOS 202210Z 16006KT 35/12 A3006 RMK A01 T03470124  RH  027%=      5-min Rain = 0
KAOS 202215Z 14006KT 35/13 A3006 RMK A01 T03460132  RH  029%=      5-min Rain = 0
KAOS 202220Z 13007KT 35/14 A3006 RMK A01 T03450137  RH  030%=      5-min Rain = 0
KAOS 202225Z 14010KT 34/13 A3005 RMK A01 T03440130  RH  029%=      5-min Rain = 0
KAOS 202230Z 15010KT 35/13 A3005 RMK A01 T03450128  RH  028%=      5-min Rain = 0
KAOS 202235Z 16008KT 35/13 A3005 RMK A01 T03490126  RH  027%=      5-min Rain = 0
KAOS 202240Z 17009KT 35/12 A3005 RMK A01 T03530123  RH  026%=      5-min Rain = 0
KAOS 202245Z 17007KT 36/12 A3005 RMK A01 T03550120  RH  025%=      5-min Rain = 0
KAOS 202250Z 16008KT 35/12 A3005 RMK A01 T03520124  RH  026%=      5-min Rain = 0
KAOS 202255Z 15008KT 35/13 A3005 RMK A01 T03530128  RH  027%=      5-min Rain = 0
KAOS 202300Z 14009KT 36/13 A3005 RMK A01 T03590134  RH  027%=      5-min Rain = 0
KAOS 202305Z 14007G16KT 36/13 A3005 RMK A01 T03590133  RH  027%=      5-min Rain = 0
KAOS 202310Z 13010G15KT 36/13 A3005 RMK A01 T03560132  RH  027%=      5-min Rain = 0
KAOS 202315Z 14010KT 35/13 A3005 RMK A01 T03510132  RH  028%=      5-min Rain = 0
KAOS 202320Z 14010G16KT 35/13 A3005 RMK A01 T03530132  RH  028%=      5-min Rain = 0
KAOS 202325Z 14014KT 35/13 A3005 RMK A01 T03490128  RH  027%=      5-min Rain = 0
KAOS 202330Z 15013KT 35/13 A3005 RMK A01 T03510126  RH  027%=      5-min Rain = 0
KAOS 202335Z 13012KT 35/13 A3005 RMK A01 T03520125  RH  026%=      5-min Rain = 0
KAOS 202340Z 13011KT 35/12 A3005 RMK A01 T03490121  RH  026%=      5-min Rain = 0
KAOS 202345Z 15010KT 35/13 A3005 RMK A01 T03480126  RH  027%=      5-min Rain = 0
KAOS 202350Z 15011KT 35/13 A3005 RMK A01 T03450125  RH  028%=      5-min Rain = 0
KAOS 202355Z 16010KT 34/13 A3005 RMK A01 T03420125  RH  028%=      5-min Rain = 0
KAOS 210000Z 15009KT 34/13 A3005 RMK A01 T03410125  RH  028%=      5-min Rain = 0
KAOS 210005Z 15009KT 34/12 A3006 RMK A01 T03400124  RH  028%=      5-min Rain = 0
KAOS 210010Z 15008KT 34/12 A3005 RMK A01 T03390122  RH  028%=      5-min Rain = 0
KAOS 210015Z 16010KT 34/12 A3005 RMK A01 T03380120  RH  028%=      5-min Rain = 0
KAOS 210020Z 17008KT 34/13 A3005 RMK A01 T03370127  RH  029%=      5-min Rain = 0
KAOS 210025Z 17009KT 34/13 A3005 RMK A01 T03360129  RH  030%=      5-min Rain = 0
KAOS 210030Z 17009KT 34/13 A3005 RMK A01 T03360125  RH  029%=      5-min Rain = 0
KAOS 210035Z 16008KT 34/12 A3005 RMK A01 T03360123  RH  029%=      5-min Rain = 0
KAOS 210040Z 16007KT 34/12 A3006 RMK A01 T03360123  RH  029%=      5-min Rain = 0
KAOS 210045Z 16007KT 34/12 A3006 RMK A01 T03350122  RH  029%=      5-min Rain = 0
KAOS 210050Z 16008KT 33/12 A3006 RMK A01 T03340121  RH  028%=      5-min Rain = 0
KAOS 210055Z 16007KT 33/12 A3006 RMK A01 T03330120  RH  028%=      5-min Rain = 0
KAOS 210100Z 16007KT 33/12 A3006 RMK A01 T03320120  RH  029%=      5-min Rain = 0
KAOS 210105Z 16006KT 33/12 A3006 RMK A01 T03310121  RH  029%=      5-min Rain = 0
KAOS 210110Z 16006KT 33/12 A3006 RMK A01 T03280123  RH  030%=      5-min Rain = 0
KAOS 210115Z 16006KT 33/12 A3006 RMK A01 T03250124  RH  030%=      5-min Rain = 0
KAOS 210120Z 16006KT 32/12 A3006 RMK A01 T03220123  RH  031%=      5-min Rain = 0
KAOS 210125Z 16006KT 32/12 A3006 RMK A01 T03200122  RH  031%=      5-min Rain = 0
KAOS 210130Z 16006KT 32/12 A3007 RMK A01 T03180122  RH  031%=      5-min Rain = 0
KAOS 210135Z 15007KT 32/12 A3007 RMK A01 T03160121  RH  032%=      5-min Rain = 0
KAOS 210140Z 15007KT 31/12 A3007 RMK A01 T03140121  RH  032%=      5-min Rain = 0
KAOS 210145Z 16007KT 31/12 A3007 RMK A01 T03120119  RH  032%=      5-min Rain = 0
KAOS 210150Z 16007KT 31/12 A3007 RMK A01 T03090119  RH  032%=      5-min Rain = 0
KAOS 210155Z 15007KT 31/12 A3007 RMK A01 T03060118  RH  033%=      5-min Rain = 0
KAOS 210200Z 15007KT 30/12 A3007 RMK A01 T03020118  RH  034%=      5-min Rain = 0
KAOS 210205Z 15007KT 30/12 A3007 RMK A01 T02970118  RH  034%=      5-min Rain = 0
KAOS 210210Z 15006KT 29/12 A3007 RMK A01 T02940117  RH  035%=      5-min Rain = 0
KAOS 210215Z 15006KT 29/12 A3008 RMK A01 T02920116  RH  035%=      5-min Rain = 0
KAOS 210220Z 15007KT 29/12 A3008 RMK A01 T02900117  RH  035%=      5-min Rain = 0
KAOS 210225Z 14007KT 29/12 A3008 RMK A01 T02890118  RH  036%=      5-min Rain = 0
KAOS 210230Z 14006KT 29/12 A3008 RMK A01 T02880119  RH  036%=      5-min Rain = 0
KAOS 210235Z 13005KT 29/12 A3008 RMK A01 T02850117  RH  037%=      5-min Rain = 0
KAOS 210240Z 13005KT 28/12 A3008 RMK A01 T02800118  RH  038%=      5-min Rain = 0
KAOS 210245Z 13006KT 28/12 A3008 RMK A01 T02760118  RH  039%=      5-min Rain = 0
KAOS 210250Z 14005KT 27/12 A3009 RMK A01 T02740119  RH  040%=      5-min Rain = 0
KAOS 210255Z 15005KT 27/12 A3009 RMK A01 T02710118  RH  040%=      5-min Rain = 0
KAOS 210300Z 15006KT 27/12 A3009 RMK A01 T02680117  RH  040%=      5-min Rain = 0
KAOS 210305Z 15007KT 27/12 A3009 RMK A01 T02660116  RH  041%=      5-min Rain = 0
KAOS 210310Z 16007KT 26/12 A3009 RMK A01 T02630116  RH  041%=      5-min Rain = 0
KAOS 210315Z 15007KT 26/12 A3009 RMK A01 T02640115  RH  041%=      5-min Rain = 0
KAOS 210320Z 16007KT 26/12 A3009 RMK A01 T02640115  RH  041%=      5-min Rain = 0
KAOS 210325Z 16007KT 26/12 A3009 RMK A01 T02640116  RH  041%=      5-min Rain = 0
KAOS 210330Z 15007KT 26/12 A301 RMK A01 T02630116  RH  041%=      5-min Rain = 0
KAOS 210335Z 15007KT 26/12 A3009 RMK A01 T02620117  RH  042%=      5-min Rain = 0
KAOS 210340Z 15008KT 26/12 A3009 RMK A01 T02630116  RH  041%=      5-min Rain = 0
KAOS 210345Z 15008KT 27/12 A3009 RMK A01 T02650115  RH  041%=      5-min Rain = 0
KAOS 210350Z 16007KT 27/12 A3009 RMK A01 T02670115  RH  040%=      5-min Rain = 0
KAOS 210355Z 15007KT 27/12 A3009 RMK A01 T02650115  RH  040%=      5-min Rain = 0
KAOS 210400Z 15008KT 26/11 A3009 RMK A01 T02640114  RH  041%=      5-min Rain = 0
KAOS 210405Z 15008KT 26/11 A301 RMK A01 T02630114  RH  041%=      5-min Rain = 0
KAOS 210410Z 15007KT 26/11 A301 RMK A01 T02610114  RH  041%=      5-min Rain = 0
KAOS 210415Z 15007KT 26/11 A301 RMK A01 T02600114  RH  041%=      5-min Rain = 0
KAOS 210420Z 15007KT 26/11 A301 RMK A01 T02590113  RH  042%=      5-min Rain = 0
KAOS 210425Z 15007KT 26/11 A301 RMK A01 T02580113  RH  042%=      5-min Rain = 0
KAOS 210430Z 15007KT 26/11 A301 RMK A01 T02560114  RH  042%=      5-min Rain = 0
KAOS 210435Z 14007KT 26/11 A301 RMK A01 T02550114  RH  043%=      5-min Rain = 0
KAOS 210440Z 14007KT 25/12 A301 RMK A01 T02540116  RH  044%=      5-min Rain = 0
KAOS 210445Z 13007KT 25/12 A301 RMK A01 T02530115  RH  043%=      5-min Rain = 0
KAOS 210450Z 14008KT 26/12 A301 RMK A01 T02550116  RH  043%=      5-min Rain = 0
KAOS 210455Z 14008KT 26/12 A3009 RMK A01 T02560118  RH  044%=      5-min Rain = 0

Page generated in 0.0093 seconds.